Terminal Aerodrome Forecast
Issued by NWS

Home | Current Version | Previous Version | Text Only | Print | Product List | Glossary Off
Versions: 1 2 3 4 5 6 7 8 9 10 11 12

890
FTUS43 KIWX 211700
TAFSBN
TAF
KSBN 211720Z 2118/2218 27013KT P6SM FEW120
     FM220000 25007KT P6SM SCT100
     FM220900 01005KT P6SM BKN070
     FM221200 02008KT P6SM FEW050=

USA.gov is the U.S. government's official web portal to all federal, state and local government web resources and services.